sensor_id;sensor_type;location;lat;lon;timestamp;P1;durP1;ratioP1;P2;durP2;ratioP2
54849;SDS011;47660;51.334;12.396;2024-03-08T00:02:34;20.75;;;9.35;;
54849;SDS011;47660;51.334;12.396;2024-03-08T00:04:59;20.15;;;9.93;;
54849;SDS011;47660;51.334;12.396;2024-03-08T00:07:24;22.42;;;9.80;;
54849;SDS011;47660;51.334;12.396;2024-03-08T00:09:51;21.00;;;9.38;;
54849;SDS011;47660;51.334;12.396;2024-03-08T00:12:16;22.95;;;8.75;;
54849;SDS011;47660;51.334;12.396;2024-03-08T00:14:42;20.75;;;9.48;;
54849;SDS011;47660;51.334;12.396;2024-03-08T00:17:07;22.13;;;9.65;;
54849;SDS011;47660;51.334;12.396;2024-03-08T00:19:34;22.33;;;9.70;;
54849;SDS011;47660;51.334;12.396;2024-03-08T00:21:59;23.27;;;9.65;;
54849;SDS011;47660;51.334;12.396;2024-03-08T00:24:25;25.88;;;9.48;;
54849;SDS011;47660;51.334;12.396;2024-03-08T00:26:50;22.00;;;10.10;;
54849;SDS011;47660;51.334;12.396;2024-03-08T00:29:16;21.25;;;9.30;;
54849;SDS011;47660;51.334;12.396;2024-03-08T00:31:41;25.88;;;10.32;;
54849;SDS011;47660;51.334;12.396;2024-03-08T00:34:06;21.73;;;9.20;;
54849;SDS011;47660;51.334;12.396;2024-03-08T00:36:31;19.65;;;9.10;;
54849;SDS011;47660;51.334;12.396;2024-03-08T00:38:57;19.17;;;9.90;;
54849;SDS011;47660;51.334;12.396;2024-03-08T00:41:22;23.50;;;9.40;;
54849;SDS011;47660;51.334;12.396;2024-03-08T00:43:47;24.00;;;9.85;;
54849;SDS011;47660;51.334;12.396;2024-03-08T00:46:13;24.67;;;9.60;;
54849;SDS011;47660;51.334;12.396;2024-03-08T00:48:40;21.00;;;8.55;;
54849;SDS011;47660;51.334;12.396;2024-03-08T00:51:08;18.35;;;8.65;;
54849;SDS011;47660;51.334;12.396;2024-03-08T00:53:33;21.25;;;9.85;;
54849;SDS011;47660;51.334;12.396;2024-03-08T00:55:58;26.35;;;10.02;;
54849;SDS011;47660;51.334;12.396;2024-03-08T00:58:24;21.45;;;8.65;;
54849;SDS011;47660;51.334;12.396;2024-03-08T01:00:49;23.15;;;9.50;;
54849;SDS011;47660;51.334;12.396;2024-03-08T01:03:14;22.35;;;9.02;;
54849;SDS011;47660;51.334;12.396;2024-03-08T01:05:40;26.27;;;10.43;;
54849;SDS011;47660;51.334;12.396;2024-03-08T01:10:30;20.33;;;8.73;;
54849;SDS011;47660;51.334;12.396;2024-03-08T01:12:56;27.45;;;9.85;;
54849;SDS011;47660;51.334;12.396;2024-03-08T01:15:22;21.65;;;8.95;;
54849;SDS011;47660;51.334;12.396;2024-03-08T01:17:48;18.27;;;8.65;;
54849;SDS011;47660;51.334;12.396;2024-03-08T01:20:18;23.80;;;9.32;;
54849;SDS011;47660;51.334;12.396;2024-03-08T01:22:53;22.60;;;10.10;;
54849;SDS011;47660;51.334;12.396;2024-03-08T01:25:18;19.15;;;8.77;;
54849;SDS011;47660;51.334;12.396;2024-03-08T01:27:43;18.15;;;8.27;;
54849;SDS011;47660;51.334;12.396;2024-03-08T01:30:09;19.48;;;8.98;;
54849;SDS011;47660;51.334;12.396;2024-03-08T01:32:34;26.40;;;10.43;;
54849;SDS011;47660;51.334;12.396;2024-03-08T01:35:00;16.20;;;7.53;;
54849;SDS011;47660;51.334;12.396;2024-03-08T01:37:25;22.13;;;8.93;;
54849;SDS011;47660;51.334;12.396;2024-03-08T01:39:50;21.15;;;8.55;;
54849;SDS011;47660;51.334;12.396;2024-03-08T01:44:42;18.58;;;8.77;;
54849;SDS011;47660;51.334;12.396;2024-03-08T01:47:08;19.00;;;9.13;;
54849;SDS011;47660;51.334;12.396;2024-03-08T01:49:36;21.02;;;9.13;;
54849;SDS011;47660;51.334;12.396;2024-03-08T01:52:01;19.67;;;8.93;;
54849;SDS011;47660;51.334;12.396;2024-03-08T01:56:52;20.40;;;8.50;;
54849;SDS011;47660;51.334;12.396;2024-03-08T01:59:18;20.83;;;8.82;;
54849;SDS011;47660;51.334;12.396;2024-03-08T02:01:44;23.10;;;9.32;;
54849;SDS011;47660;51.334;12.396;2024-03-08T02:04:10;24.15;;;9.45;;
54849;SDS011;47660;51.334;12.396;2024-03-08T02:06:36;17.45;;;8.30;;
54849;SDS011;47660;51.334;12.396;2024-03-08T02:09:08;23.63;;;10.63;;
54849;SDS011;47660;51.334;12.396;2024-03-08T02:11:34;24.13;;;9.85;;
54849;SDS011;47660;51.334;12.396;2024-03-08T02:14:01;19.67;;;8.60;;
54849;SDS011;47660;51.334;12.396;2024-03-08T02:16:26;23.58;;;9.50;;
54849;SDS011;47660;51.334;12.396;2024-03-08T02:21:17;20.37;;;8.70;;
54849;SDS011;47660;51.334;12.396;2024-03-08T02:23:46;19.15;;;8.85;;
54849;SDS011;47660;51.334;12.396;2024-03-08T02:26:11;28.65;;;10.07;;
54849;SDS011;47660;51.334;12.396;2024-03-08T02:31:02;18.17;;;8.13;;
54849;SDS011;47660;51.334;12.396;2024-03-08T02:33:32;23.52;;;8.52;;
54849;SDS011;47660;51.334;12.396;2024-03-08T02:35:58;26.50;;;9.82;;
54849;SDS011;47660;51.334;12.396;2024-03-08T02:38:23;21.02;;;9.20;;
54849;SDS011;47660;51.334;12.396;2024-03-08T02:40:49;22.92;;;10.15;;
54849;SDS011;47660;51.334;12.396;2024-03-08T02:43:16;26.17;;;9.48;;
54849;SDS011;47660;51.334;12.396;2024-03-08T02:45:43;22.90;;;8.82;;
54849;SDS011;47660;51.334;12.396;2024-03-08T02:48:10;20.17;;;8.82;;
54849;SDS011;47660;51.334;12.396;2024-03-08T02:50:36;24.08;;;9.52;;
54849;SDS011;47660;51.334;12.396;2024-03-08T02:53:01;15.30;;;8.50;;
54849;SDS011;47660;51.334;12.396;2024-03-08T02:57:52;17.63;;;8.10;;
54849;SDS011;47660;51.334;12.396;2024-03-08T03:00:19;22.35;;;9.82;;
54849;SDS011;47660;51.334;12.396;2024-03-08T03:02:46;21.55;;;8.85;;
54849;SDS011;47660;51.334;12.396;2024-03-08T03:05:11;20.25;;;9.07;;
54849;SDS011;47660;51.334;12.396;2024-03-08T03:07:37;16.73;;;7.97;;
54849;SDS011;47660;51.334;12.396;2024-03-08T03:10:03;21.58;;;9.02;;
54849;SDS011;47660;51.334;12.396;2024-03-08T03:12:30;20.38;;;9.10;;
54849;SDS011;47660;51.334;12.396;2024-03-08T03:14:56;19.80;;;8.35;;
54849;SDS011;47660;51.334;12.396;2024-03-08T03:17:25;20.42;;;8.95;;
54849;SDS011;47660;51.334;12.396;2024-03-08T03:19:51;18.13;;;8.48;;
54849;SDS011;47660;51.334;12.396;2024-03-08T03:22:17;18.35;;;9.07;;
54849;SDS011;47660;51.334;12.396;2024-03-08T03:24:46;23.20;;;7.85;;
54849;SDS011;47660;51.334;12.396;2024-03-08T03:27:12;18.25;;;7.40;;
54849;SDS011;47660;51.334;12.396;2024-03-08T03:29:38;21.52;;;9.02;;
54849;SDS011;47660;51.334;12.396;2024-03-08T03:32:07;18.70;;;8.82;;
54849;SDS011;47660;51.334;12.396;2024-03-08T03:34:34;23.33;;;7.97;;
54849;SDS011;47660;51.334;12.396;2024-03-08T03:37:03;20.13;;;9.65;;
54849;SDS011;47660;51.334;12.396;2024-03-08T03:39:37;20.92;;;8.85;;
54849;SDS011;47660;51.334;12.396;2024-03-08T03:42:14;19.23;;;8.05;;
54849;SDS011;47660;51.334;12.396;2024-03-08T03:44:40;20.58;;;8.70;;
54849;SDS011;47660;51.334;12.396;2024-03-08T03:47:05;16.75;;;7.53;;
54849;SDS011;47660;51.334;12.396;2024-03-08T03:49:31;26.52;;;8.38;;
54849;SDS011;47660;51.334;12.396;2024-03-08T03:51:58;21.88;;;8.65;;
54849;SDS011;47660;51.334;12.396;2024-03-08T03:54:23;15.73;;;7.80;;
54849;SDS011;47660;51.334;12.396;2024-03-08T03:56:48;22.65;;;8.85;;
54849;SDS011;47660;51.334;12.396;2024-03-08T03:59:17;20.77;;;8.88;;
54849;SDS011;47660;51.334;12.396;2024-03-08T04:01:43;17.02;;;8.25;;
54849;SDS011;47660;51.334;12.396;2024-03-08T04:04:08;29.35;;;9.93;;
54849;SDS011;47660;51.334;12.396;2024-03-08T04:08:59;23.83;;;8.23;;
54849;SDS011;47660;51.334;12.396;2024-03-08T04:13:49;14.52;;;7.82;;
54849;SDS011;47660;51.334;12.396;2024-03-08T04:16:14;16.75;;;8.65;;
54849;SDS011;47660;51.334;12.396;2024-03-08T04:18:40;16.98;;;8.25;;
54849;SDS011;47660;51.334;12.396;2024-03-08T04:21:05;21.98;;;10.00;;
54849;SDS011;47660;51.334;12.396;2024-03-08T04:23:31;19.30;;;8.82;;
54849;SDS011;47660;51.334;12.396;2024-03-08T04:25:58;18.98;;;8.40;;
54849;SDS011;47660;51.334;12.396;2024-03-08T04:28:24;22.02;;;9.60;;
54849;SDS011;47660;51.334;12.396;2024-03-08T04:30:50;20.60;;;8.85;;
54849;SDS011;47660;51.334;12.396;2024-03-08T04:33:15;19.83;;;8.45;;
54849;SDS011;47660;51.334;12.396;2024-03-08T04:35:42;17.35;;;8.32;;
54849;SDS011;47660;51.334;12.396;2024-03-08T04:38:11;23.85;;;9.55;;
54849;SDS011;47660;51.334;12.396;2024-03-08T04:40:36;20.23;;;9.70;;
54849;SDS011;47660;51.334;12.396;2024-03-08T04:43:01;18.08;;;8.35;;
54849;SDS011;47660;51.334;12.396;2024-03-08T04:45:27;19.98;;;8.90;;
54849;SDS011;47660;51.334;12.396;2024-03-08T04:47:52;21.75;;;9.00;;
54849;SDS011;47660;51.334;12.396;2024-03-08T04:52:43;18.05;;;8.05;;
54849;SDS011;47660;51.334;12.396;2024-03-08T04:55:08;19.58;;;8.25;;
54849;SDS011;47660;51.334;12.396;2024-03-08T04:57:34;20.30;;;9.80;;
54849;SDS011;47660;51.334;12.396;2024-03-08T04:59:59;20.55;;;8.02;;
54849;SDS011;47660;51.334;12.396;2024-03-08T05:02:24;24.70;;;9.18;;
54849;SDS011;47660;51.334;12.396;2024-03-08T05:07:15;14.65;;;7.22;;
54849;SDS011;47660;51.334;12.396;2024-03-08T05:12:06;19.00;;;8.57;;
54849;SDS011;47660;51.334;12.396;2024-03-08T05:14:32;21.65;;;9.15;;
54849;SDS011;47660;51.334;12.396;2024-03-08T05:16:59;17.10;;;7.90;;
54849;SDS011;47660;51.334;12.396;2024-03-08T05:19:25;18.15;;;7.65;;
54849;SDS011;47660;51.334;12.396;2024-03-08T05:24:16;24.87;;;9.03;;
54849;SDS011;47660;51.334;12.396;2024-03-08T05:29:07;18.95;;;7.95;;
54849;SDS011;47660;51.334;12.396;2024-03-08T05:31:46;19.45;;;7.70;;
54849;SDS011;47660;51.334;12.396;2024-03-08T05:34:13;21.65;;;8.50;;
54849;SDS011;47660;51.334;12.396;2024-03-08T05:36:39;22.15;;;10.00;;
54849;SDS011;47660;51.334;12.396;2024-03-08T05:39:05;21.88;;;10.57;;
54849;SDS011;47660;51.334;12.396;2024-03-08T05:41:31;22.13;;;8.40;;
54849;SDS011;47660;51.334;12.396;2024-03-08T05:46:22;18.13;;;8.35;;
54849;SDS011;47660;51.334;12.396;2024-03-08T05:48:48;23.05;;;9.38;;
54849;SDS011;47660;51.334;12.396;2024-03-08T05:53:38;18.95;;;8.15;;
54849;SDS011;47660;51.334;12.396;2024-03-08T05:56:04;24.10;;;9.50;;
54849;SDS011;47660;51.334;12.396;2024-03-08T05:58:29;22.80;;;9.43;;
54849;SDS011;47660;51.334;12.396;2024-03-08T06:00:57;24.40;;;9.50;;
54849;SDS011;47660;51.334;12.396;2024-03-08T06:03:22;25.45;;;10.10;;
54849;SDS011;47660;51.334;12.396;2024-03-08T06:08:14;23.80;;;8.98;;
54849;SDS011;47660;51.334;12.396;2024-03-08T06:10:39;26.30;;;9.57;;
54849;SDS011;47660;51.334;12.396;2024-03-08T06:13:05;23.02;;;9.38;;
54849;SDS011;47660;51.334;12.396;2024-03-08T06:17:56;14.03;;;7.07;;
54849;SDS011;47660;51.334;12.396;2024-03-08T06:22:51;16.23;;;7.70;;
54849;SDS011;47660;51.334;12.396;2024-03-08T06:25:16;22.45;;;9.77;;
54849;SDS011;47660;51.334;12.396;2024-03-08T06:27:42;22.48;;;9.90;;
54849;SDS011;47660;51.334;12.396;2024-03-08T06:30:08;21.42;;;10.00;;
54849;SDS011;47660;51.334;12.396;2024-03-08T06:32:34;22.08;;;9.52;;
54849;SDS011;47660;51.334;12.396;2024-03-08T06:35:03;23.75;;;9.50;;
54849;SDS011;47660;51.334;12.396;2024-03-08T06:37:33;26.52;;;9.38;;
54849;SDS011;47660;51.334;12.396;2024-03-08T06:39:58;26.60;;;10.43;;
54849;SDS011;47660;51.334;12.396;2024-03-08T06:42:25;26.77;;;9.98;;
54849;SDS011;47660;51.334;12.396;2024-03-08T06:44:51;22.50;;;9.13;;
54849;SDS011;47660;51.334;12.396;2024-03-08T06:47:16;25.48;;;10.48;;
54849;SDS011;47660;51.334;12.396;2024-03-08T06:49:45;21.83;;;9.80;;
54849;SDS011;47660;51.334;12.396;2024-03-08T06:52:10;20.55;;;9.13;;
54849;SDS011;47660;51.334;12.396;2024-03-08T06:54:36;25.13;;;9.40;;
54849;SDS011;47660;51.334;12.396;2024-03-08T06:57:02;28.25;;;10.27;;
54849;SDS011;47660;51.334;12.396;2024-03-08T06:59:28;24.70;;;10.88;;
54849;SDS011;47660;51.334;12.396;2024-03-08T07:01:54;20.42;;;9.32;;
54849;SDS011;47660;51.334;12.396;2024-03-08T07:04:19;23.38;;;9.63;;
54849;SDS011;47660;51.334;12.396;2024-03-08T07:06:46;22.35;;;9.55;;
54849;SDS011;47660;51.334;12.396;2024-03-08T07:09:15;27.92;;;10.10;;
54849;SDS011;47660;51.334;12.396;2024-03-08T07:11:41;28.27;;;10.48;;
54849;SDS011;47660;51.334;12.396;2024-03-08T07:14:07;24.90;;;10.88;;
54849;SDS011;47660;51.334;12.396;2024-03-08T07:16:32;24.50;;;9.63;;
54849;SDS011;47660;51.334;12.396;2024-03-08T07:18:58;25.02;;;10.38;;
54849;SDS011;47660;51.334;12.396;2024-03-08T07:21:23;23.08;;;10.40;;
54849;SDS011;47660;51.334;12.396;2024-03-08T07:26:34;20.92;;;10.30;;
54849;SDS011;47660;51.334;12.396;2024-03-08T07:29:00;25.30;;;9.27;;
54849;SDS011;47660;51.334;12.396;2024-03-08T07:31:25;26.92;;;10.40;;
54849;SDS011;47660;51.334;12.396;2024-03-08T07:33:51;28.92;;;10.98;;
54849;SDS011;47660;51.334;12.396;2024-03-08T07:36:18;24.20;;;10.75;;
54849;SDS011;47660;51.334;12.396;2024-03-08T07:38:43;27.52;;;10.95;;
54849;SDS011;47660;51.334;12.396;2024-03-08T07:41:10;24.45;;;10.25;;
54849;SDS011;47660;51.334;12.396;2024-03-08T07:43:36;23.77;;;9.88;;
54849;SDS011;47660;51.334;12.396;2024-03-08T07:46:01;23.42;;;10.57;;
54849;SDS011;47660;51.334;12.396;2024-03-08T07:48:27;22.27;;;10.15;;
54849;SDS011;47660;51.334;12.396;2024-03-08T07:50:53;25.27;;;10.88;;
54849;SDS011;47660;51.334;12.396;2024-03-08T07:53:19;25.25;;;11.27;;
54849;SDS011;47660;51.334;12.396;2024-03-08T07:55:44;24.17;;;10.27;;
54849;SDS011;47660;51.334;12.396;2024-03-08T07:58:09;24.88;;;11.00;;
54849;SDS011;47660;51.334;12.396;2024-03-08T08:00:36;23.38;;;10.80;;
54849;SDS011;47660;51.334;12.396;2024-03-08T08:03:01;22.58;;;10.55;;
54849;SDS011;47660;51.334;12.396;2024-03-08T08:05:27;20.77;;;10.77;;
54849;SDS011;47660;51.334;12.396;2024-03-08T08:07:52;21.80;;;11.02;;
54849;SDS011;47660;51.334;12.396;2024-03-08T08:10:18;25.20;;;11.38;;
54849;SDS011;47660;51.334;12.396;2024-03-08T08:12:46;24.33;;;12.00;;
54849;SDS011;47660;51.334;12.396;2024-03-08T08:15:15;21.60;;;10.90;;
54849;SDS011;47660;51.334;12.396;2024-03-08T08:17:44;22.73;;;11.85;;
54849;SDS011;47660;51.334;12.396;2024-03-08T08:20:10;23.60;;;11.90;;
54849;SDS011;47660;51.334;12.396;2024-03-08T08:22:37;24.38;;;11.75;;
54849;SDS011;47660;51.334;12.396;2024-03-08T08:25:04;26.80;;;12.40;;
54849;SDS011;47660;51.334;12.396;2024-03-08T08:27:29;21.35;;;11.65;;
54849;SDS011;47660;51.334;12.396;2024-03-08T08:29:55;20.30;;;11.18;;
54849;SDS011;47660;51.334;12.396;2024-03-08T08:32:20;23.13;;;12.10;;
54849;SDS011;47660;51.334;12.396;2024-03-08T08:34:46;24.02;;;11.40;;
54849;SDS011;47660;51.334;12.396;2024-03-08T08:37:11;22.83;;;12.38;;
54849;SDS011;47660;51.334;12.396;2024-03-08T08:39:37;20.48;;;12.05;;
54849;SDS011;47660;51.334;12.396;2024-03-08T08:42:03;21.20;;;11.70;;
54849;SDS011;47660;51.334;12.396;2024-03-08T08:44:28;22.70;;;12.07;;
54849;SDS011;47660;51.334;12.396;2024-03-08T08:46:54;21.48;;;11.70;;
54849;SDS011;47660;51.334;12.396;2024-03-08T08:49:19;21.65;;;12.05;;
54849;SDS011;47660;51.334;12.396;2024-03-08T08:51:48;21.45;;;11.98;;
54849;SDS011;47660;51.334;12.396;2024-03-08T08:54:14;22.35;;;11.60;;
54849;SDS011;47660;51.334;12.396;2024-03-08T08:56:42;23.00;;;12.00;;
54849;SDS011;47660;51.334;12.396;2024-03-08T08:59:09;23.23;;;11.32;;
54849;SDS011;47660;51.334;12.396;2024-03-08T09:01:34;24.38;;;12.95;;
54849;SDS011;47660;51.334;12.396;2024-03-08T09:03:59;23.75;;;12.40;;
54849;SDS011;47660;51.334;12.396;2024-03-08T09:06:25;20.23;;;11.63;;
54849;SDS011;47660;51.334;12.396;2024-03-08T09:08:50;22.90;;;12.63;;
54849;SDS011;47660;51.334;12.396;2024-03-08T09:11:16;20.90;;;11.70;;
54849;SDS011;47660;51.334;12.396;2024-03-08T09:13:43;19.85;;;11.65;;
54849;SDS011;47660;51.334;12.396;2024-03-08T09:16:10;22.02;;;12.20;;
54849;SDS011;47660;51.334;12.396;2024-03-08T09:18:36;21.73;;;11.68;;
54849;SDS011;47660;51.334;12.396;2024-03-08T09:21:01;22.33;;;12.95;;
54849;SDS011;47660;51.334;12.396;2024-03-08T09:23:26;19.48;;;12.18;;
54849;SDS011;47660;51.334;12.396;2024-03-08T09:25:55;21.15;;;12.40;;
54849;SDS011;47660;51.334;12.396;2024-03-08T09:28:22;20.35;;;11.43;;
54849;SDS011;47660;51.334;12.396;2024-03-08T09:30:47;22.08;;;13.07;;
54849;SDS011;47660;51.334;12.396;2024-03-08T09:33:13;21.63;;;12.40;;
54849;SDS011;47660;51.334;12.396;2024-03-08T09:35:42;21.00;;;11.93;;
54849;SDS011;47660;51.334;12.396;2024-03-08T09:38:07;19.63;;;11.80;;
54849;SDS011;47660;51.334;12.396;2024-03-08T09:40:37;20.58;;;12.38;;
54849;SDS011;47660;51.334;12.396;2024-03-08T09:43:03;23.25;;;13.80;;
54849;SDS011;47660;51.334;12.396;2024-03-08T09:45:28;21.50;;;12.15;;
54849;SDS011;47660;51.334;12.396;2024-03-08T09:47:56;19.23;;;11.85;;
54849;SDS011;47660;51.334;12.396;2024-03-08T09:50:22;20.77;;;13.52;;
54849;SDS011;47660;51.334;12.396;2024-03-08T09:52:48;21.15;;;12.60;;
54849;SDS011;47660;51.334;12.396;2024-03-08T09:55:14;20.90;;;13.13;;
54849;SDS011;47660;51.334;12.396;2024-03-08T09:57:43;19.63;;;12.57;;
54849;SDS011;47660;51.334;12.396;2024-03-08T10:00:31;21.13;;;12.63;;
54849;SDS011;47660;51.334;12.396;2024-03-08T10:03:00;19.38;;;12.18;;
54849;SDS011;47660;51.334;12.396;2024-03-08T10:05:26;21.52;;;12.18;;
54849;SDS011;47660;51.334;12.396;2024-03-08T10:07:51;18.33;;;11.52;;
54849;SDS011;47660;51.334;12.396;2024-03-08T10:10:18;23.23;;;13.13;;
54849;SDS011;47660;51.334;12.396;2024-03-08T10:12:43;21.02;;;12.95;;
54849;SDS011;47660;51.334;12.396;2024-03-08T10:15:08;20.48;;;13.02;;
54849;SDS011;47660;51.334;12.396;2024-03-08T10:17:37;16.25;;;11.55;;
54849;SDS011;47660;51.334;12.396;2024-03-08T10:20:02;20.90;;;12.50;;
54849;SDS011;47660;51.334;12.396;2024-03-08T10:22:29;21.42;;;12.68;;
54849;SDS011;47660;51.334;12.396;2024-03-08T10:24:56;19.05;;;12.52;;
54849;SDS011;47660;51.334;12.396;2024-03-08T10:27:22;17.58;;;11.98;;
54849;SDS011;47660;51.334;12.396;2024-03-08T10:29:48;19.17;;;12.60;;
54849;SDS011;47660;51.334;12.396;2024-03-08T10:32:13;20.80;;;12.07;;
54849;SDS011;47660;51.334;12.396;2024-03-08T10:34:38;19.40;;;12.10;;
54849;SDS011;47660;51.334;12.396;2024-03-08T10:37:04;22.10;;;11.80;;
54849;SDS011;47660;51.334;12.396;2024-03-08T10:39:37;17.60;;;11.52;;
54849;SDS011;47660;51.334;12.396;2024-03-08T10:42:03;20.25;;;12.55;;
54849;SDS011;47660;51.334;12.396;2024-03-08T10:47:02;20.08;;;12.27;;
54849;SDS011;47660;51.334;12.396;2024-03-08T10:49:38;17.60;;;11.77;;
54849;SDS011;47660;51.334;12.396;2024-03-08T10:52:13;18.30;;;11.60;;
54849;SDS011;47660;51.334;12.396;2024-03-08T10:54:42;17.95;;;11.70;;
54849;SDS011;47660;51.334;12.396;2024-03-08T10:57:08;18.48;;;12.30;;
54849;SDS011;47660;51.334;12.396;2024-03-08T10:59:37;21.95;;;12.70;;
54849;SDS011;47660;51.334;12.396;2024-03-08T11:02:04;17.52;;;10.85;;
54849;SDS011;47660;51.334;12.396;2024-03-08T11:04:30;17.50;;;12.27;;
54849;SDS011;47660;51.334;12.396;2024-03-08T11:07:01;17.52;;;11.15;;
54849;SDS011;47660;51.334;12.396;2024-03-08T11:09:31;20.10;;;12.55;;
54849;SDS011;47660;51.334;12.396;2024-03-08T11:14:45;17.98;;;12.27;;
54849;SDS011;47660;51.334;12.396;2024-03-08T11:17:15;20.48;;;12.98;;
54849;SDS011;47660;51.334;12.396;2024-03-08T11:19:45;19.05;;;11.93;;
54849;SDS011;47660;51.334;12.396;2024-03-08T11:22:20;18.40;;;11.70;;
54849;SDS011;47660;51.334;12.396;2024-03-08T11:24:49;18.05;;;11.80;;
54849;SDS011;47660;51.334;12.396;2024-03-08T11:27:15;17.67;;;11.52;;
54849;SDS011;47660;51.334;12.396;2024-03-08T11:29:40;18.60;;;11.85;;
54849;SDS011;47660;51.334;12.396;2024-03-08T11:32:14;15.73;;;9.90;;
54849;SDS011;47660;51.334;12.396;2024-03-08T11:34:41;21.67;;;11.40;;
54849;SDS011;47660;51.334;12.396;2024-03-08T11:37:11;16.95;;;10.80;;
54849;SDS011;47660;51.334;12.396;2024-03-08T11:39:39;16.58;;;10.98;;
54849;SDS011;47660;51.334;12.396;2024-03-08T11:42:05;19.25;;;11.85;;
54849;SDS011;47660;51.334;12.396;2024-03-08T11:44:30;18.27;;;11.38;;
54849;SDS011;47660;51.334;12.396;2024-03-08T11:46:56;17.88;;;11.30;;
54849;SDS011;47660;51.334;12.396;2024-03-08T11:49:22;17.58;;;11.00;;
54849;SDS011;47660;51.334;12.396;2024-03-08T11:51:50;18.83;;;11.10;;
54849;SDS011;47660;51.334;12.396;2024-03-08T11:54:17;15.73;;;10.52;;
54849;SDS011;47660;51.334;12.396;2024-03-08T11:56:42;18.27;;;10.82;;
54849;SDS011;47660;51.334;12.396;2024-03-08T11:59:11;16.95;;;11.02;;
54849;SDS011;47660;51.334;12.396;2024-03-08T12:01:37;17.45;;;10.57;;
54849;SDS011;47660;51.334;12.396;2024-03-08T12:04:03;18.77;;;11.10;;
54849;SDS011;47660;51.334;12.396;2024-03-08T12:06:37;18.85;;;11.23;;
54849;SDS011;47660;51.334;12.396;2024-03-08T12:09:12;18.13;;;10.70;;
54849;SDS011;47660;51.334;12.396;2024-03-08T12:11:38;18.88;;;11.43;;
54849;SDS011;47660;51.334;12.396;2024-03-08T12:14:04;19.02;;;10.63;;
54849;SDS011;47660;51.334;12.396;2024-03-08T12:16:31;19.38;;;10.85;;
54849;SDS011;47660;51.334;12.396;2024-03-08T12:18:57;19.73;;;11.43;;
54849;SDS011;47660;51.334;12.396;2024-03-08T12:21:22;17.60;;;11.57;;
54849;SDS011;47660;51.334;12.396;2024-03-08T12:24:06;17.95;;;11.70;;
54849;SDS011;47660;51.334;12.396;2024-03-08T12:32:04;16.65;;;10.65;;
54849;SDS011;47660;51.334;12.396;2024-03-08T12:34:30;17.77;;;11.30;;
54849;SDS011;47660;51.334;12.396;2024-03-08T12:36:57;19.70;;;11.57;;
54849;SDS011;47660;51.334;12.396;2024-03-08T12:39:23;20.85;;;12.40;;
54849;SDS011;47660;51.334;12.396;2024-03-08T12:41:55;17.80;;;11.40;;
54849;SDS011;47660;51.334;12.396;2024-03-08T12:44:22;18.15;;;11.27;;
54849;SDS011;47660;51.334;12.396;2024-03-08T12:46:47;20.33;;;11.23;;
54849;SDS011;47660;51.334;12.396;2024-03-08T12:49:13;16.85;;;11.35;;
54849;SDS011;47660;51.334;12.396;2024-03-08T12:51:42;18.60;;;10.73;;
54849;SDS011;47660;51.334;12.396;2024-03-08T12:54:08;19.60;;;11.38;;
54849;SDS011;47660;51.334;12.396;2024-03-08T12:56:34;18.80;;;10.80;;
54849;SDS011;47660;51.334;12.396;2024-03-08T12:59:02;18.10;;;10.50;;
54849;SDS011;47660;51.334;12.396;2024-03-08T13:01:29;17.95;;;11.45;;
54849;SDS011;47660;51.334;12.396;2024-03-08T13:03:57;19.30;;;11.55;;
54849;SDS011;47660;51.334;12.396;2024-03-08T13:06:23;19.35;;;12.10;;
54849;SDS011;47660;51.334;12.396;2024-03-08T13:08:52;20.30;;;11.57;;
54849;SDS011;47660;51.334;12.396;2024-03-08T13:11:18;22.05;;;12.82;;
54849;SDS011;47660;51.334;12.396;2024-03-08T13:13:48;24.35;;;12.88;;
54849;SDS011;47660;51.334;12.396;2024-03-08T13:16:13;25.90;;;11.70;;
54849;SDS011;47660;51.334;12.396;2024-03-08T13:18:40;20.60;;;11.32;;
54849;SDS011;47660;51.334;12.396;2024-03-08T13:21:07;24.33;;;11.32;;
54849;SDS011;47660;51.334;12.396;2024-03-08T13:23:34;23.50;;;11.75;;
54849;SDS011;47660;51.334;12.396;2024-03-08T13:26:08;21.40;;;11.38;;
54849;SDS011;47660;51.334;12.396;2024-03-08T13:28:37;21.88;;;10.93;;
54849;SDS011;47660;51.334;12.396;2024-03-08T13:31:05;21.65;;;11.18;;
54849;SDS011;47660;51.334;12.396;2024-03-08T13:33:37;21.15;;;10.95;;
54849;SDS011;47660;51.334;12.396;2024-03-08T13:36:04;21.30;;;11.13;;
54849;SDS011;47660;51.334;12.396;2024-03-08T13:38:39;26.10;;;11.57;;
54849;SDS011;47660;51.334;12.396;2024-03-08T13:41:08;22.08;;;11.82;;
54849;SDS011;47660;51.334;12.396;2024-03-08T13:43:34;23.95;;;11.18;;
54849;SDS011;47660;51.334;12.396;2024-03-08T13:46:01;26.38;;;11.68;;
54849;SDS011;47660;51.334;12.396;2024-03-08T13:48:27;24.73;;;11.90;;
54849;SDS011;47660;51.334;12.396;2024-03-08T13:50:52;22.85;;;11.45;;
54849;SDS011;47660;51.334;12.396;2024-03-08T13:53:17;24.35;;;11.38;;
54849;SDS011;47660;51.334;12.396;2024-03-08T13:55:43;26.13;;;11.65;;
54849;SDS011;47660;51.334;12.396;2024-03-08T13:58:09;23.83;;;11.30;;
54849;SDS011;47660;51.334;12.396;2024-03-08T14:00:34;25.75;;;11.25;;
54849;SDS011;47660;51.334;12.396;2024-03-08T14:03:01;23.92;;;10.80;;
54849;SDS011;47660;51.334;12.396;2024-03-08T14:05:30;25.10;;;11.30;;
54849;SDS011;47660;51.334;12.396;2024-03-08T14:07:59;24.88;;;11.25;;
54849;SDS011;47660;51.334;12.396;2024-03-08T14:10:25;23.33;;;11.13;;
54849;SDS011;47660;51.334;12.396;2024-03-08T14:12:52;22.75;;;11.73;;
54849;SDS011;47660;51.334;12.396;2024-03-08T14:15:17;24.77;;;10.77;;
54849;SDS011;47660;51.334;12.396;2024-03-08T14:17:42;21.67;;;11.20;;
54849;SDS011;47660;51.334;12.396;2024-03-08T14:20:08;25.25;;;11.38;;
54849;SDS011;47660;51.334;12.396;2024-03-08T14:22:34;26.13;;;11.38;;
54849;SDS011;47660;51.334;12.396;2024-03-08T14:24:59;20.17;;;9.95;;
54849;SDS011;47660;51.334;12.396;2024-03-08T14:27:25;23.85;;;10.45;;
54849;SDS011;47660;51.334;12.396;2024-03-08T14:29:52;27.65;;;11.00;;
54849;SDS011;47660;51.334;12.396;2024-03-08T14:32:17;20.00;;;10.50;;
54849;SDS011;47660;51.334;12.396;2024-03-08T14:34:46;26.55;;;10.75;;
54849;SDS011;47660;51.334;12.396;2024-03-08T14:37:12;24.65;;;10.75;;
54849;SDS011;47660;51.334;12.396;2024-03-08T14:39:38;21.25;;;10.60;;
54849;SDS011;47660;51.334;12.396;2024-03-08T14:42:04;25.80;;;11.05;;
54849;SDS011;47660;51.334;12.396;2024-03-08T14:44:31;25.42;;;11.10;;
54849;SDS011;47660;51.334;12.396;2024-03-08T14:46:56;22.63;;;10.73;;
54849;SDS011;47660;51.334;12.396;2024-03-08T14:49:23;24.15;;;11.25;;
54849;SDS011;47660;51.334;12.396;2024-03-08T14:51:49;23.92;;;10.52;;
54849;SDS011;47660;51.334;12.396;2024-03-08T14:54:14;26.27;;;10.98;;
54849;SDS011;47660;51.334;12.396;2024-03-08T14:56:39;25.30;;;10.63;;
54849;SDS011;47660;51.334;12.396;2024-03-08T14:59:06;23.90;;;9.93;;
54849;SDS011;47660;51.334;12.396;2024-03-08T15:01:32;23.48;;;10.95;;
54849;SDS011;47660;51.334;12.396;2024-03-08T15:04:00;23.27;;;10.57;;
54849;SDS011;47660;51.334;12.396;2024-03-08T15:06:33;21.40;;;10.35;;
54849;SDS011;47660;51.334;12.396;2024-03-08T15:08:59;20.73;;;9.98;;